createdAt,value
2019-02-16T00:01:33.682Z,15.15
2019-02-16T00:03:08.468Z,18.17
2019-02-16T00:04:43.289Z,17.55
2019-02-16T00:06:18.118Z,20.00
2019-02-16T00:07:53.201Z,17.07
2019-02-16T00:09:28.349Z,15.85
2019-02-16T00:11:03.143Z,18.73
2019-02-16T00:12:38.206Z,14.60
2019-02-16T00:14:13.262Z,17.65
2019-02-16T00:15:48.050Z,16.67
2019-02-16T00:17:23.089Z,16.52
2019-02-16T00:18:57.898Z,16.62
2019-02-16T00:20:32.950Z,17.48
2019-02-16T00:22:07.745Z,15.93
2019-02-16T00:23:42.538Z,15.68
2019-02-16T00:25:17.355Z,21.40
2019-02-16T00:26:52.141Z,16.40
2019-02-16T00:28:27.164Z,17.42
2019-02-16T00:30:02.205Z,18.73
2019-02-16T00:31:37.271Z,18.45
2019-02-16T00:33:12.078Z,20.20
2019-02-16T00:34:47.120Z,18.07
2019-02-16T00:36:21.917Z,18.50
2019-02-16T00:37:56.987Z,18.07
2019-02-16T00:39:32.021Z,18.82
2019-02-16T00:41:06.835Z,19.75
2019-02-16T00:42:41.887Z,17.30
2019-02-16T00:44:16.952Z,17.23
2019-02-16T00:45:51.825Z,19.37
2019-02-16T00:47:26.892Z,18.92
2019-02-16T00:49:01.942Z,14.90
2019-02-16T00:50:36.746Z,19.50
2019-02-16T00:52:11.827Z,16.17
2019-02-16T00:53:46.630Z,15.10
2019-02-16T00:55:21.659Z,20.37
2019-02-16T00:56:56.457Z,17.45
2019-02-16T00:58:31.813Z,17.60
2019-02-16T01:00:08.602Z,17.15
2019-02-16T01:01:43.656Z,16.80
2019-02-16T01:03:18.463Z,16.67
2019-02-16T01:04:53.310Z,16.67
2019-02-16T01:06:28.364Z,16.95
2019-02-16T01:08:03.400Z,15.58
2019-02-16T01:09:38.488Z,16.07
2019-02-16T01:11:13.819Z,17.82
2019-02-16T01:12:48.864Z,17.60
2019-02-16T01:14:23.949Z,16.55
2019-02-16T01:15:58.755Z,17.52
2019-02-16T01:17:33.863Z,16.90
2019-02-16T01:19:08.924Z,20.23
2019-02-16T01:20:43.993Z,15.55
2019-02-16T01:22:18.796Z,18.48
2019-02-16T01:23:54.083Z,15.88
2019-02-16T01:25:29.624Z,15.78
2019-02-16T01:27:04.436Z,16.62
2019-02-16T01:28:39.234Z,18.32
2019-02-16T01:30:14.517Z,19.85
2019-02-16T01:31:49.359Z,15.45
2019-02-16T01:33:24.179Z,17.60
2019-02-16T01:34:59.481Z,19.23
2019-02-16T01:36:34.521Z,15.38
2019-02-16T01:38:09.362Z,14.93
2019-02-16T01:39:44.147Z,17.32
2019-02-16T01:41:19.436Z,18.77
2019-02-16T01:42:54.469Z,17.80
2019-02-16T01:44:29.593Z,13.90
2019-02-16T01:46:04.414Z,16.90
2019-02-16T01:47:39.224Z,16.62
2019-02-16T01:49:14.022Z,15.70
2019-02-16T01:50:48.891Z,16.45
2019-02-16T01:52:23.963Z,17.82
2019-02-16T01:53:59.273Z,14.58
2019-02-16T01:55:34.091Z,16.82
2019-02-16T01:57:09.279Z,19.60
2019-02-16T01:58:44.567Z,18.20
2019-02-16T02:00:19.707Z,15.13
2019-02-16T02:01:54.504Z,15.75
2019-02-16T02:03:29.340Z,20.17
2019-02-16T02:05:04.577Z,18.85
2019-02-16T02:06:39.633Z,18.02
2019-02-16T02:08:14.449Z,16.48
2019-02-16T02:09:49.268Z,15.03
2019-02-16T02:11:24.326Z,15.08
2019-02-16T02:12:59.640Z,17.10
2019-02-16T02:14:34.859Z,14.33
2019-02-16T02:16:09.660Z,15.28
2019-02-16T02:17:44.556Z,15.08
2019-02-16T02:19:19.367Z,18.67
2019-02-16T02:20:54.441Z,16.55
2019-02-16T02:22:29.504Z,16.23
2019-02-16T02:24:04.468Z,18.67
2019-02-16T02:25:39.528Z,17.75
2019-02-16T02:27:14.325Z,15.98
2019-02-16T02:28:49.146Z,16.80
2019-02-16T02:30:23.984Z,15.68
2019-02-16T02:31:59.266Z,18.50
2019-02-16T02:33:34.393Z,19.10
2019-02-16T02:35:09.221Z,16.07
2019-02-16T02:36:44.018Z,20.15
2019-02-16T02:38:19.059Z,18.42
2019-02-16T02:39:53.880Z,17.62
2019-02-16T02:41:28.929Z,18.87
2019-02-16T02:43:03.749Z,17.95
2019-02-16T02:44:38.564Z,19.23
2019-02-16T02:46:13.364Z,16.65
2019-02-16T02:47:48.182Z,19.00
2019-02-16T02:49:23.261Z,19.32
2019-02-16T02:50:58.060Z,16.62
2019-02-16T02:52:32.861Z,19.65
2019-02-16T02:54:07.917Z,17.17
2019-02-16T02:55:42.966Z,18.98
2019-02-16T02:57:18.271Z,19.62
2019-02-16T02:58:53.062Z,22.85
2019-02-16T03:00:28.444Z,24.10
2019-02-16T03:02:03.259Z,21.55
2019-02-16T03:03:38.048Z,23.02
2019-02-16T03:05:12.981Z,20.50
2019-02-16T03:06:48.083Z,23.30
2019-02-16T03:08:23.232Z,22.17
2019-02-16T03:09:58.026Z,21.97
2019-02-16T03:11:32.830Z,25.45
2019-02-16T03:13:07.888Z,24.75
2019-02-16T03:14:42.971Z,22.90
2019-02-16T03:16:17.840Z,23.30
2019-02-16T03:17:52.655Z,23.57
2019-02-16T03:19:27.924Z,22.35
2019-02-16T03:21:02.969Z,24.32
2019-02-16T03:23:16.199Z,21.90
2019-02-16T03:24:50.882Z,21.85
2019-02-16T03:26:55.662Z,20.20
2019-02-16T03:28:54.529Z,21.30
2019-02-16T03:30:51.104Z,21.70
2019-02-16T03:32:36.339Z,18.50
2019-02-16T03:34:21.090Z,25.25
2019-02-16T03:36:27.494Z,22.10
2019-02-16T03:38:23.941Z,20.35
2019-02-16T03:39:58.330Z,20.37
2019-02-16T03:41:32.859Z,23.85
2019-02-16T03:43:07.462Z,19.62
2019-02-16T03:44:41.859Z,19.90
2019-02-16T03:46:16.548Z,20.12
2019-02-16T03:47:51.438Z,19.20
2019-02-16T03:49:26.127Z,21.17
2019-02-16T03:51:01.079Z,20.62
2019-02-16T03:52:35.722Z,23.73
2019-02-16T03:54:10.343Z,19.87
2019-02-16T03:55:44.791Z,18.10
2019-02-16T03:57:19.566Z,19.48
2019-02-16T03:58:54.017Z,20.85
2019-02-16T04:00:28.409Z,23.30
2019-02-16T04:02:03.030Z,23.35
2019-02-16T04:03:37.423Z,29.35
2019-02-16T04:05:11.929Z,26.82
2019-02-16T04:06:46.311Z,27.02
2019-02-16T04:08:21.214Z,31.97
2019-02-16T04:09:55.584Z,29.45
2019-02-16T04:11:30.023Z,27.85
2019-02-16T04:13:04.413Z,28.60
2019-02-16T04:14:38.854Z,31.65
2019-02-16T04:16:13.491Z,29.87
2019-02-16T04:17:48.123Z,35.33
2019-02-16T04:19:22.577Z,34.35
2019-02-16T04:20:57.322Z,34.10
2019-02-16T04:22:31.943Z,32.93
2019-02-16T04:24:06.592Z,33.20
2019-02-16T04:25:41.463Z,29.07
2019-02-16T04:27:16.175Z,32.80
2019-02-16T04:28:51.341Z,33.90
2019-02-16T04:30:26.011Z,34.27
2019-02-16T04:32:01.059Z,30.72
2019-02-16T04:33:35.501Z,31.50
2019-02-16T04:35:09.881Z,32.23
2019-02-16T04:36:44.252Z,29.10
2019-02-16T04:38:18.890Z,32.13
2019-02-16T04:39:53.535Z,35.23
2019-02-16T04:41:28.356Z,31.57
2019-02-16T04:43:02.983Z,35.13
2019-02-16T04:44:37.922Z,31.68
2019-02-16T04:46:12.347Z,34.58
2019-02-16T04:47:46.993Z,34.45
2019-02-16T04:49:21.478Z,33.10
2019-02-16T04:50:55.848Z,32.80
2019-02-16T04:52:35.003Z,33.63
2019-02-16T04:54:06.618Z,34.45
2019-02-16T04:55:41.081Z,35.68
2019-02-16T04:57:15.703Z,33.65
2019-02-16T04:58:50.079Z,37.20
2019-02-16T05:00:24.537Z,36.35
2019-02-16T05:01:58.942Z,34.35
2019-02-16T05:03:33.462Z,33.10
2019-02-16T05:05:08.246Z,36.95
2019-02-16T05:06:42.621Z,32.38
2019-02-16T05:08:17.325Z,34.75
2019-02-16T05:09:51.854Z,32.42
2019-02-16T05:11:26.240Z,35.43
2019-02-16T05:13:00.854Z,36.25
2019-02-16T05:14:35.578Z,33.42
2019-02-16T05:16:10.219Z,33.35
2019-02-16T05:17:44.591Z,34.98
2019-02-16T05:19:19.603Z,34.63
2019-02-16T05:20:54.247Z,32.20
2019-02-16T05:22:28.684Z,32.95
2019-02-16T05:24:03.178Z,32.83
2019-02-16T05:25:38.040Z,32.75
2019-02-16T05:27:12.422Z,35.52
2019-02-16T05:28:47.047Z,33.38
2019-02-16T05:30:21.478Z,31.73
2019-02-16T05:31:55.871Z,31.23
2019-02-16T05:33:30.507Z,31.12
2019-02-16T05:35:05.375Z,30.70
2019-02-16T05:36:39.970Z,33.85
2019-02-16T05:38:14.710Z,34.78
2019-02-16T05:39:49.320Z,36.17
2019-02-16T05:41:23.778Z,36.28
2019-02-16T05:42:58.190Z,36.88
2019-02-16T05:44:32.633Z,35.70
2019-02-16T05:46:07.028Z,34.70
2019-02-16T05:47:41.742Z,32.38
2019-02-16T05:49:16.349Z,34.50
2019-02-16T05:50:50.796Z,33.45
2019-02-16T05:52:25.418Z,35.25
2019-02-16T05:54:00.270Z,37.20
2019-02-16T05:55:35.126Z,37.85
2019-02-16T05:57:09.507Z,36.98
2019-02-16T05:58:44.456Z,35.70
2019-02-16T06:00:21.127Z,37.58
2019-02-16T06:01:55.575Z,33.58
2019-02-16T06:03:29.963Z,39.83
2019-02-16T06:05:04.604Z,40.00
2019-02-16T06:06:39.035Z,31.12
2019-02-16T06:08:13.439Z,38.10
2019-02-16T06:09:48.224Z,39.38
2019-02-16T06:11:22.991Z,38.50
2019-02-16T06:12:57.366Z,39.15
2019-02-16T06:14:32.318Z,37.58
2019-02-16T06:16:06.814Z,39.35
2019-02-16T06:17:41.454Z,36.63
2019-02-16T06:19:15.859Z,39.75
2019-02-16T06:20:50.538Z,39.58
2019-02-16T06:22:24.900Z,42.75
2019-02-16T06:23:59.319Z,41.23
2019-02-16T06:25:33.942Z,42.33
2019-02-16T06:27:08.313Z,45.60
2019-02-16T06:28:43.190Z,41.85
2019-02-16T06:30:17.578Z,42.13
2019-02-16T06:31:52.129Z,42.90
2019-02-16T06:33:26.481Z,40.75
2019-02-16T06:35:14.642Z,39.73
2019-02-16T06:36:49.554Z,45.28
2019-02-16T06:38:24.750Z,44.98
2019-02-16T06:39:59.127Z,44.10
2019-02-16T06:41:33.539Z,42.73
2019-02-16T06:43:08.416Z,40.78
2019-02-16T06:44:42.962Z,37.93
2019-02-16T06:46:18.152Z,38.55
2019-02-16T06:47:52.826Z,40.43
2019-02-16T06:49:27.209Z,40.95
2019-02-16T06:51:02.014Z,41.88
2019-02-16T06:52:36.951Z,38.67
2019-02-16T06:54:11.782Z,32.20
2019-02-16T06:55:51.107Z,36.38
2019-02-16T06:57:28.982Z,36.30
2019-02-16T06:59:04.453Z,37.13
2019-02-16T07:00:39.240Z,31.68
2019-02-16T07:02:14.192Z,29.55
2019-02-16T07:03:48.738Z,40.05
2019-02-16T07:05:23.398Z,32.67
2019-02-16T07:06:58.123Z,33.40
2019-02-16T07:08:33.211Z,35.33
2019-02-16T07:10:08.350Z,34.10
2019-02-16T07:11:42.736Z,39.65
2019-02-16T07:13:17.175Z,32.78
2019-02-16T07:14:52.202Z,39.95
2019-02-16T07:16:49.316Z,42.60
2019-02-16T07:18:33.770Z,39.33
2019-02-16T07:20:09.359Z,40.75
2019-02-16T07:21:44.419Z,40.00
2019-02-16T07:23:22.437Z,37.40
2019-02-16T07:24:55.739Z,41.10
2019-02-16T07:26:30.538Z,42.17
2019-02-16T07:28:05.829Z,42.45
2019-02-16T07:29:40.661Z,39.40
2019-02-16T07:31:16.003Z,38.53
2019-02-16T07:32:51.099Z,42.17
2019-02-16T07:34:25.996Z,43.60
2019-02-16T07:36:00.785Z,39.33
2019-02-16T07:37:35.575Z,43.87
2019-02-16T07:39:10.432Z,40.63
2019-02-16T07:40:45.498Z,39.65
2019-02-16T07:42:20.775Z,39.53
2019-02-16T07:44:23.645Z,41.85
2019-02-16T07:46:07.258Z,42.60
2019-02-16T07:48:00.989Z,37.83
2019-02-16T07:49:54.304Z,39.08
2019-02-16T07:51:41.020Z,39.42
2019-02-16T07:53:38.177Z,39.40
2019-02-16T07:55:20.701Z,39.88
2019-02-16T07:57:14.903Z,45.28
2019-02-16T07:58:59.029Z,40.63
2019-02-16T08:00:41.064Z,39.90
2019-02-16T08:02:23.541Z,41.88
2019-02-16T08:04:24.193Z,45.95
2019-02-16T08:06:16.653Z,40.35
2019-02-16T08:08:09.132Z,39.63
2019-02-16T08:09:55.792Z,40.92
2019-02-16T08:11:49.885Z,44.20
2019-02-16T08:13:52.748Z,41.00
2019-02-16T08:15:45.231Z,43.65
2019-02-16T08:17:27.389Z,45.55
2019-02-16T08:19:19.979Z,46.30
2019-02-16T08:21:13.771Z,42.20
2019-02-16T08:22:59.015Z,42.40
2019-02-16T08:24:59.763Z,47.38
2019-02-16T08:26:52.564Z,43.63
2019-02-16T08:28:35.666Z,44.53
2019-02-16T08:30:29.582Z,50.00
2019-02-16T08:32:42.231Z,44.05
2019-02-16T08:34:26.579Z,50.83
2019-02-16T08:36:19.459Z,48.45
2019-02-16T08:38:02.893Z,49.00
2019-02-16T08:39:49.285Z,45.12
2019-02-16T08:41:46.155Z,48.70
2019-02-16T08:43:41.110Z,50.63
2019-02-16T08:45:38.165Z,49.93
2019-02-16T08:47:37.546Z,49.03
2019-02-16T08:49:23.502Z,45.30
2019-02-16T08:51:09.171Z,44.53
2019-02-16T08:53:07.328Z,42.90
2019-02-16T08:55:00.299Z,45.43
2019-02-16T08:56:52.371Z,47.00
2019-02-16T08:58:49.385Z,43.50
2019-02-16T09:00:43.535Z,44.30
2019-02-16T09:02:24.149Z,43.75
2019-02-16T09:04:23.139Z,42.78
2019-02-16T09:06:20.052Z,46.47
2019-02-16T09:08:10.826Z,46.88
2019-02-16T09:10:14.157Z,42.53
2019-02-16T09:12:08.509Z,44.40
2019-02-16T09:13:55.703Z,46.65
2019-02-16T09:16:02.060Z,45.58
2019-02-16T09:18:01.236Z,47.30
2019-02-16T09:20:05.169Z,47.73
2019-02-16T09:21:57.844Z,46.83
2019-02-16T09:23:39.683Z,46.53
2019-02-16T09:25:31.357Z,43.83
2019-02-16T09:27:24.029Z,44.33
2019-02-16T09:29:06.005Z,39.83
2019-02-16T09:30:51.060Z,45.77
2019-02-16T09:32:54.691Z,42.53
2019-02-16T09:34:40.107Z,43.90
2019-02-16T09:36:28.214Z,41.17
2019-02-16T09:38:34.081Z,41.63
2019-02-16T09:40:26.674Z,44.27
2019-02-16T09:42:07.956Z,42.13
2019-02-16T09:44:00.565Z,43.03
2019-02-16T09:46:03.583Z,42.03
2019-02-16T09:48:02.143Z,38.60
2019-02-16T09:49:49.851Z,41.33
2019-02-16T09:51:43.664Z,41.10
2019-02-16T09:53:33.462Z,42.80
2019-02-16T09:55:23.382Z,40.63
2019-02-16T09:57:29.621Z,41.70
2019-02-16T09:59:09.949Z,37.83
2019-02-16T10:01:03.755Z,40.27
2019-02-16T10:02:48.121Z,38.83
2019-02-16T10:04:40.911Z,39.10
2019-02-16T10:06:41.444Z,39.90
2019-02-16T10:08:32.896Z,41.47
2019-02-16T10:10:26.012Z,39.00
2019-02-16T10:12:21.015Z,39.40
2019-02-16T10:14:13.755Z,39.80
2019-02-16T10:16:10.658Z,40.57
2019-02-16T10:18:19.739Z,39.37
2019-02-16T10:20:04.354Z,39.80
2019-02-16T10:21:59.003Z,36.83
2019-02-16T10:23:56.084Z,45.90
2019-02-16T10:25:40.279Z,39.60
2019-02-16T10:27:37.086Z,38.13
2019-02-16T10:29:40.115Z,40.23
2019-02-16T10:31:32.027Z,38.03
2019-02-16T10:33:12.661Z,39.07
2019-02-16T10:34:56.789Z,38.27
2019-02-16T10:36:49.230Z,36.30
2019-02-16T10:38:42.019Z,38.70
2019-02-16T10:40:38.942Z,37.63
2019-02-16T10:42:24.724Z,39.77
2019-02-16T10:44:16.150Z,39.97
2019-02-16T10:46:11.030Z,34.00
2019-02-16T10:48:03.925Z,35.13
2019-02-16T10:50:13.183Z,35.80
2019-02-16T10:52:09.987Z,35.10
2019-02-16T10:54:06.605Z,33.20
2019-02-16T10:55:59.596Z,35.50
2019-02-16T10:57:42.419Z,32.13
2019-02-16T10:59:22.279Z,32.47
2019-02-16T11:01:05.031Z,35.97
2019-02-16T11:02:52.063Z,36.83
2019-02-16T11:04:38.267Z,33.83
2019-02-16T11:06:29.638Z,33.40
2019-02-16T11:08:12.010Z,32.57
2019-02-16T11:09:52.049Z,35.83
2019-02-16T11:11:37.266Z,33.73
2019-02-16T11:13:25.631Z,30.30
2019-02-16T11:15:18.295Z,31.53
2019-02-16T11:17:11.323Z,31.97
2019-02-16T11:18:59.085Z,29.80
2019-02-16T11:20:52.800Z,32.73
2019-02-16T11:22:34.678Z,28.97
2019-02-16T11:24:19.195Z,29.87
2019-02-16T11:26:05.874Z,26.50
2019-02-16T11:27:48.589Z,29.90
2019-02-16T11:29:37.868Z,32.60
2019-02-16T11:31:20.761Z,26.43
2019-02-16T11:33:07.579Z,27.10
2019-02-16T11:34:54.492Z,28.47
2019-02-16T11:36:35.252Z,28.50
2019-02-16T11:38:29.776Z,27.33
2019-02-16T11:40:24.790Z,25.50
2019-02-16T11:42:17.258Z,27.73
2019-02-16T11:44:12.374Z,27.23
2019-02-16T11:46:12.385Z,28.03
2019-02-16T11:48:00.767Z,29.27
2019-02-16T11:49:54.967Z,25.70
2019-02-16T11:51:47.923Z,30.40
2019-02-16T11:53:40.605Z,26.93
2019-02-16T11:55:33.347Z,27.17
2019-02-16T11:57:28.529Z,25.73
2019-02-16T11:59:20.908Z,25.87
2019-02-16T12:01:03.355Z,26.10
2019-02-16T12:02:50.079Z,24.63
2019-02-16T12:04:39.953Z,27.57
2019-02-16T12:06:24.016Z,27.50
2019-02-16T12:08:12.232Z,26.47
2019-02-16T12:10:06.021Z,25.57
2019-02-16T12:12:15.177Z,25.03
2019-02-16T12:14:10.843Z,24.10
2019-02-16T12:18:20.490Z,25.40
2019-02-16T12:20:04.251Z,26.00
2019-02-16T12:22:36.402Z,23.67
2019-02-16T12:25:05.667Z,21.77
2019-02-16T12:28:00.554Z,24.67
2019-02-16T12:30:02.237Z,25.57
2019-02-16T12:32:01.099Z,25.97
2019-02-16T12:33:56.924Z,30.83
2019-02-16T12:35:56.954Z,24.47
2019-02-16T12:38:00.188Z,25.37
2019-02-16T12:40:14.171Z,27.10
2019-02-16T12:42:07.182Z,23.57
2019-02-16T12:43:53.871Z,26.93
2019-02-16T12:45:50.622Z,22.83
2019-02-16T12:47:27.779Z,23.27
2019-02-16T12:49:33.739Z,27.40
2019-02-16T12:51:39.332Z,25.47
2019-02-16T12:53:32.637Z,24.00
2019-02-16T12:55:36.337Z,24.53
2019-02-16T12:57:39.800Z,24.27
2019-02-16T12:59:49.793Z,22.37
2019-02-16T13:01:47.960Z,22.87
2019-02-16T13:03:45.096Z,26.13
2019-02-16T13:05:31.606Z,21.10
2019-02-16T13:07:47.725Z,22.33
2019-02-16T13:09:58.716Z,21.00
2019-02-16T13:12:38.608Z,24.00
2019-02-16T13:14:44.965Z,20.20
2019-02-16T13:16:35.886Z,23.07
2019-02-16T13:18:29.017Z,19.10
2019-02-16T13:20:12.923Z,19.70
2019-02-16T13:21:56.246Z,22.70
2019-02-16T13:23:42.430Z,19.00
2019-02-16T13:25:42.340Z,18.77
2019-02-16T13:27:34.579Z,19.23
2019-02-16T13:29:31.939Z,17.33
2019-02-16T13:31:27.492Z,19.60
2019-02-16T13:33:21.622Z,19.13
2019-02-16T13:35:15.890Z,20.43
2019-02-16T13:37:12.744Z,17.17
2019-02-16T13:39:13.451Z,19.93
2019-02-16T13:41:07.238Z,16.30
2019-02-16T13:42:54.216Z,19.83
2019-02-16T13:44:40.726Z,17.40
2019-02-16T13:46:27.890Z,16.00
2019-02-16T13:48:11.594Z,16.97
2019-02-16T13:49:52.837Z,18.17
2019-02-16T13:51:56.161Z,15.50
2019-02-16T13:53:47.696Z,16.73
2019-02-16T13:55:33.453Z,16.97
2019-02-16T13:57:22.339Z,18.20
2019-02-16T13:59:25.446Z,16.33
2019-02-16T14:01:08.349Z,18.77
2019-02-16T14:03:00.864Z,16.27
2019-02-16T14:04:53.473Z,16.33
2019-02-16T14:06:44.043Z,17.80
2019-02-16T14:08:46.987Z,17.67
2019-02-16T14:10:56.861Z,17.10
2019-02-16T14:12:49.424Z,17.27
2019-02-16T14:14:52.822Z,15.03
2019-02-16T14:16:34.835Z,16.30
2019-02-16T14:18:09.621Z,19.40
2019-02-16T14:19:45.295Z,16.03
2019-02-16T14:21:20.449Z,16.37
2019-02-16T14:23:01.005Z,16.23
2019-02-16T14:24:42.494Z,14.47
2019-02-16T14:26:18.219Z,15.13
2019-02-16T14:27:53.041Z,12.10
2019-02-16T14:29:29.338Z,15.00
2019-02-16T14:31:04.396Z,16.80
2019-02-16T14:32:39.408Z,13.63
2019-02-16T14:34:14.460Z,15.17
2019-02-16T14:35:49.550Z,19.03
2019-02-16T14:37:46.446Z,15.93
2019-02-16T14:39:29.914Z,14.43
2019-02-16T14:41:09.387Z,14.07
2019-02-16T14:42:45.014Z,16.60
2019-02-16T14:44:19.814Z,15.67
2019-02-16T14:45:54.871Z,13.23
2019-02-16T14:47:30.804Z,15.73
2019-02-16T14:49:06.167Z,15.77
2019-02-16T14:50:41.194Z,15.33
2019-02-16T14:52:16.815Z,14.47
2019-02-16T14:53:52.349Z,14.10
2019-02-16T14:55:27.799Z,16.37
2019-02-16T14:57:02.590Z,16.80
2019-02-16T14:58:38.832Z,15.03
2019-02-16T15:00:13.794Z,16.40
2019-02-16T15:01:48.589Z,17.80
2019-02-16T15:03:23.852Z,17.57
2019-02-16T15:04:58.889Z,17.73
2019-02-16T15:06:33.722Z,19.43
2019-02-16T15:08:08.768Z,16.53
2019-02-16T15:09:44.185Z,17.47
2019-02-16T15:11:19.296Z,17.23
2019-02-16T15:12:54.500Z,15.20
2019-02-16T15:14:29.613Z,20.50
2019-02-16T15:16:05.528Z,20.47
2019-02-16T15:17:40.587Z,16.17
2019-02-16T15:19:16.559Z,18.60
2019-02-16T15:20:51.729Z,17.80
2019-02-16T15:22:26.609Z,19.30
2019-02-16T15:24:01.672Z,16.67
2019-02-16T15:25:46.254Z,18.40
2019-02-16T15:27:21.857Z,20.77
2019-02-16T15:28:56.680Z,18.87
2019-02-16T15:30:31.986Z,17.80
2019-02-16T15:32:07.304Z,17.33
2019-02-16T15:33:42.885Z,18.93
2019-02-16T15:35:20.902Z,19.30
2019-02-16T15:36:55.927Z,16.53
2019-02-16T15:38:30.755Z,18.40
2019-02-16T15:40:20.685Z,20.30
2019-02-16T15:42:03.024Z,18.10
2019-02-16T15:43:49.680Z,19.83
2019-02-16T15:45:24.990Z,19.33
2019-02-16T15:46:59.420Z,18.20
2019-02-16T15:48:34.418Z,19.03
2019-02-16T15:50:12.301Z,20.73
2019-02-16T15:51:47.105Z,18.20
2019-02-16T15:53:22.996Z,22.43
2019-02-16T15:54:57.958Z,19.83
2019-02-16T15:56:34.915Z,19.63
2019-02-16T15:58:10.256Z,17.93
2019-02-16T15:59:45.296Z,19.40
2019-02-16T16:01:20.383Z,19.90
2019-02-16T16:02:55.204Z,16.57
2019-02-16T16:04:30.256Z,17.83
2019-02-16T16:06:05.870Z,16.07
2019-02-16T16:07:43.336Z,17.80
2019-02-16T16:09:36.302Z,20.10
2019-02-16T16:11:26.620Z,18.40
2019-02-16T16:13:20.444Z,19.47
2019-02-16T16:15:09.712Z,19.20
2019-02-16T16:17:06.442Z,20.97
2019-02-16T16:19:06.176Z,18.07
2019-02-16T16:20:48.339Z,22.70
2019-02-16T16:22:33.085Z,19.90
2019-02-16T16:24:29.792Z,23.20
2019-02-16T16:26:24.383Z,18.67
2019-02-16T16:28:30.758Z,20.10
2019-02-16T16:30:31.817Z,21.30
2019-02-16T16:32:35.141Z,22.00
2019-02-16T16:34:28.068Z,21.57
2019-02-16T16:36:18.313Z,24.97
2019-02-16T16:38:00.143Z,24.73
2019-02-16T16:39:54.472Z,19.00
2019-02-16T16:41:36.093Z,22.57
2019-02-16T16:43:39.128Z,23.92
2019-02-16T16:45:33.207Z,25.27
2019-02-16T16:47:27.160Z,23.50
2019-02-16T16:49:20.050Z,24.23
2019-02-16T16:51:09.639Z,30.32
2019-02-16T16:52:55.186Z,23.25
2019-02-16T16:55:01.703Z,25.85
2019-02-16T16:56:54.684Z,23.47
2019-02-16T16:58:38.911Z,21.45
2019-02-16T17:00:27.932Z,24.85
2019-02-16T17:08:14.908Z,28.07
2019-02-16T17:09:59.075Z,24.40
2019-02-16T17:11:55.340Z,22.67
2019-02-16T17:13:44.262Z,25.65
2019-02-16T17:15:38.626Z,25.35
2019-02-16T17:17:38.433Z,25.75
2019-02-16T17:19:28.879Z,29.02
2019-02-16T17:21:31.919Z,24.45
2019-02-16T17:23:31.758Z,26.35
2019-02-16T17:25:21.652Z,25.15
2019-02-16T17:27:14.435Z,28.77
2019-02-16T17:29:24.397Z,27.45
2019-02-16T17:31:10.767Z,24.98
2019-02-16T17:33:17.286Z,26.75
2019-02-16T17:35:17.683Z,26.35
2019-02-16T17:37:23.833Z,27.13
2019-02-16T17:39:15.824Z,27.80
2019-02-16T17:41:19.692Z,26.87
2019-02-16T17:43:04.048Z,29.27
2019-02-16T17:45:01.549Z,27.27
2019-02-16T17:46:55.778Z,26.17
2019-02-16T17:48:49.333Z,26.87
2019-02-16T17:50:31.382Z,24.37
2019-02-16T17:52:28.235Z,25.72
2019-02-16T17:54:26.459Z,26.50
2019-02-16T17:56:08.774Z,23.05
2019-02-16T17:57:49.906Z,24.87
2019-02-16T17:59:49.546Z,29.18
2019-02-16T18:01:52.750Z,29.35
2019-02-16T18:03:48.510Z,26.17
2019-02-16T18:05:41.647Z,24.37
2019-02-16T18:07:26.800Z,30.52
2019-02-16T18:09:20.519Z,28.38
2019-02-16T18:11:09.502Z,29.98
2019-02-16T18:13:06.921Z,25.02
2019-02-16T18:14:53.004Z,27.93
2019-02-16T18:16:53.484Z,25.08
2019-02-16T18:18:38.192Z,24.40
2019-02-16T18:20:28.541Z,28.25
2019-02-16T18:22:22.179Z,24.70
2019-02-16T18:24:17.867Z,29.23
2019-02-16T18:26:05.827Z,26.50
2019-02-16T18:27:59.752Z,27.15
2019-02-16T18:29:52.089Z,27.65
2019-02-16T18:31:48.937Z,26.42
2019-02-16T18:33:49.035Z,29.32
2019-02-16T18:35:43.635Z,30.05
2019-02-16T18:37:25.838Z,29.37
2019-02-16T18:39:18.266Z,31.60
2019-02-16T18:41:10.370Z,28.27
2019-02-16T18:42:58.255Z,29.98
2019-02-16T18:44:52.370Z,29.57
2019-02-16T18:46:57.945Z,27.98
2019-02-16T18:48:57.783Z,30.15
2019-02-16T18:50:44.740Z,30.05
2019-02-16T18:52:38.306Z,34.88
2019-02-16T18:54:19.215Z,35.88
2019-02-16T18:56:08.128Z,32.60
2019-02-16T18:58:11.261Z,33.90
2019-02-16T19:00:05.285Z,34.95
2019-02-16T19:02:01.809Z,35.33
2019-02-16T19:04:01.490Z,36.03
2019-02-16T19:05:43.717Z,33.98
2019-02-16T19:07:37.165Z,36.80
2019-02-16T19:09:34.847Z,37.53
2019-02-16T19:11:29.718Z,33.92
2019-02-16T19:13:14.579Z,35.05
2019-02-16T19:14:58.628Z,36.08
2019-02-16T19:16:43.672Z,32.33
2019-02-16T19:18:26.241Z,33.67
2019-02-16T19:20:26.082Z,36.65
2019-02-16T19:22:13.552Z,34.15
2019-02-16T19:24:00.936Z,34.95
2019-02-16T19:26:00.562Z,33.60
2019-02-16T19:27:54.023Z,33.60
2019-02-16T19:29:47.481Z,35.33
2019-02-16T19:31:29.433Z,35.25
2019-02-16T19:33:09.849Z,32.90
2019-02-16T19:34:57.830Z,33.18
2019-02-16T19:36:47.376Z,32.83
2019-02-16T19:38:50.410Z,36.45
2019-02-16T19:40:37.160Z,34.53
2019-02-16T19:42:20.194Z,35.83
2019-02-16T19:44:13.050Z,34.95
2019-02-16T19:45:56.612Z,35.23
2019-02-16T19:47:45.655Z,37.50
2019-02-16T19:49:29.609Z,40.88
2019-02-16T19:51:29.635Z,35.73
2019-02-16T19:53:25.097Z,36.95
2019-02-16T19:55:17.542Z,38.15
2019-02-16T19:56:58.612Z,38.80
2019-02-16T19:58:56.047Z,40.40
2019-02-16T20:00:42.961Z,39.78
2019-02-16T20:02:26.904Z,42.78
2019-02-16T20:04:23.117Z,39.23
2019-02-16T20:06:23.193Z,38.53
2019-02-16T20:08:14.573Z,36.88
2019-02-16T20:09:58.335Z,41.20
2019-02-16T20:11:46.849Z,36.77
2019-02-16T20:13:39.505Z,38.38
2019-02-16T20:15:22.947Z,43.17
2019-02-16T20:17:22.361Z,38.42
2019-02-16T20:19:10.370Z,42.43
2019-02-16T20:20:52.575Z,43.65
2019-02-16T20:22:45.112Z,42.38
2019-02-16T20:24:37.494Z,42.48
2019-02-16T20:26:22.434Z,42.20
2019-02-16T20:28:08.474Z,39.55
2019-02-16T20:30:02.204Z,39.75
2019-02-16T20:32:01.797Z,42.03
2019-02-16T20:34:01.993Z,45.88
2019-02-16T20:35:58.303Z,39.92
2019-02-16T20:37:50.646Z,44.08
2019-02-16T20:39:47.195Z,43.10
2019-02-16T20:41:43.476Z,44.42
2019-02-16T20:43:43.296Z,45.00
2019-02-16T20:45:22.782Z,42.83
2019-02-16T20:47:04.044Z,44.95
2019-02-16T20:48:55.681Z,40.65
2019-02-16T20:50:45.350Z,45.30
2019-02-16T20:52:30.163Z,46.68
2019-02-16T20:54:21.721Z,47.53
2019-02-16T20:56:11.905Z,50.78
2019-02-16T20:58:04.763Z,44.67
2019-02-16T20:59:57.650Z,46.53
2019-02-16T21:01:43.876Z,47.38
2019-02-16T21:03:37.192Z,45.12
2019-02-16T21:05:19.055Z,40.58
2019-02-16T21:07:06.840Z,42.08
2019-02-16T21:09:07.555Z,36.85
2019-02-16T21:10:52.359Z,34.70
2019-02-16T21:12:48.736Z,35.73
2019-02-16T21:14:32.705Z,33.18
2019-02-16T21:16:25.894Z,37.42
2019-02-16T21:18:18.345Z,38.73
2019-02-16T21:20:10.947Z,34.83
2019-02-16T21:21:53.826Z,40.12
2019-02-16T21:23:46.375Z,35.38
2019-02-16T21:25:29.709Z,39.95
2019-02-16T21:27:11.203Z,44.00
2019-02-16T21:28:51.766Z,36.53
2019-02-16T21:30:39.012Z,36.03
2019-02-16T21:32:31.648Z,37.38
2019-02-16T21:34:32.807Z,40.78
2019-02-16T21:36:17.093Z,42.30
2019-02-16T21:38:08.601Z,38.80
2019-02-16T21:40:02.899Z,37.38
2019-02-16T21:41:59.850Z,36.90
2019-02-16T21:44:00.218Z,42.27
2019-02-16T21:46:03.125Z,40.50
2019-02-16T21:47:55.896Z,38.80
2019-02-16T21:49:49.987Z,39.63
2019-02-16T21:51:47.572Z,32.33
2019-02-16T21:53:40.023Z,36.33
2019-02-16T21:55:35.426Z,33.02
2019-02-16T21:57:21.493Z,38.95
2019-02-16T21:59:19.287Z,41.50
2019-02-16T22:01:10.304Z,39.90
2019-02-16T22:02:54.573Z,40.43
2019-02-16T22:04:48.870Z,43.40
2019-02-16T22:06:41.385Z,40.10
2019-02-16T22:08:36.100Z,46.75
2019-02-16T22:10:17.164Z,46.33
2019-02-16T22:12:11.230Z,47.38
2019-02-16T22:13:47.204Z,48.70
2019-02-16T22:15:22.015Z,44.58
2019-02-16T22:16:56.814Z,54.90
2019-02-16T22:18:32.339Z,51.45
2019-02-16T22:20:10.061Z,47.23
2019-02-16T22:21:44.843Z,45.55
2019-02-16T22:23:19.916Z,54.13
2019-02-16T22:24:55.219Z,51.08
2019-02-16T22:26:30.418Z,51.92
2019-02-16T22:28:05.218Z,50.30
2019-02-16T22:29:40.511Z,51.20
2019-02-16T22:31:17.791Z,43.00
2019-02-16T22:32:52.407Z,50.73
2019-02-16T22:34:27.186Z,52.13
2019-02-16T22:36:01.967Z,52.95